Terminal Aerodrome Forecast
Issued by NWS

Home | Current Version | Previous Version | Text Only | Print | Product List | Glossary On
Versions: 1 2 3 4 5 6 7 8 9 10 11 12 13 14
000
FTUS42 KGSP 041736
TAFAND
TAF
KAND 041736Z 0418/0518 26003KT P6SM FEW060 SCT250
     FM050200 00000KT P6SM FEW250
     FM051500 21005KT P6SM FEW060 SCT250=

USA.gov is the U.S. government's official web portal to all federal, state and local government web resources and services.